sensor_id;sensor_type;location;lat;lon;timestamp;temperature;humidity
23703;DHT22;12030;50.376;8.762;2023-04-21T00:01:10;8.30;99.90
23703;DHT22;12030;50.376;8.762;2023-04-21T00:03:37;8.30;99.90
23703;DHT22;12030;50.376;8.762;2023-04-21T00:06:06;8.30;99.90
23703;DHT22;12030;50.376;8.762;2023-04-21T00:08:32;8.20;99.90
23703;DHT22;12030;50.376;8.762;2023-04-21T00:10:57;8.30;99.90
23703;DHT22;12030;50.376;8.762;2023-04-21T00:13:23;8.30;99.90
23703;DHT22;12030;50.376;8.762;2023-04-21T00:15:49;8.30;99.90
23703;DHT22;12030;50.376;8.762;2023-04-21T00:18:15;8.40;99.90
23703;DHT22;12030;50.376;8.762;2023-04-21T00:20:42;8.40;99.90
23703;DHT22;12030;50.376;8.762;2023-04-21T00:23:07;8.30;99.90
23703;DHT22;12030;50.376;8.762;2023-04-21T00:25:35;8.30;99.90
23703;DHT22;12030;50.376;8.762;2023-04-21T00:28:00;8.40;99.90
23703;DHT22;12030;50.376;8.762;2023-04-21T00:30:26;8.40;99.90
23703;DHT22;12030;50.376;8.762;2023-04-21T00:32:52;8.40;99.90
23703;DHT22;12030;50.376;8.762;2023-04-21T00:35:17;8.40;99.90
23703;DHT22;12030;50.376;8.762;2023-04-21T00:37:43;8.40;99.90
23703;DHT22;12030;50.376;8.762;2023-04-21T00:40:08;8.40;99.90
23703;DHT22;12030;50.376;8.762;2023-04-21T00:42:34;8.40;99.90
23703;DHT22;12030;50.376;8.762;2023-04-21T00:45:00;8.40;99.90
23703;DHT22;12030;50.376;8.762;2023-04-21T00:47:25;8.40;99.90
23703;DHT22;12030;50.376;8.762;2023-04-21T00:49:51;8.50;99.90
23703;DHT22;12030;50.376;8.762;2023-04-21T00:52:17;8.50;99.90
23703;DHT22;12030;50.376;8.762;2023-04-21T00:54:43;8.50;99.90
23703;DHT22;12030;50.376;8.762;2023-04-21T00:57:09;8.50;99.90
23703;DHT22;12030;50.376;8.762;2023-04-21T00:59:35;8.50;99.90
23703;DHT22;12030;50.376;8.762;2023-04-21T01:02:01;8.50;99.90
23703;DHT22;12030;50.376;8.762;2023-04-21T01:04:27;8.50;99.90
23703;DHT22;12030;50.376;8.762;2023-04-21T01:06:52;8.40;99.90
23703;DHT22;12030;50.376;8.762;2023-04-21T01:09:19;8.40;99.90
23703;DHT22;12030;50.376;8.762;2023-04-21T01:14:27;8.30;99.90
23703;DHT22;12030;50.376;8.762;2023-04-21T01:16:53;8.40;99.90
23703;DHT22;12030;50.376;8.762;2023-04-21T01:19:19;8.30;99.90
23703;DHT22;12030;50.376;8.762;2023-04-21T01:21:44;8.30;99.90
23703;DHT22;12030;50.376;8.762;2023-04-21T01:24:10;8.30;99.90
23703;DHT22;12030;50.376;8.762;2023-04-21T01:26:37;8.30;99.90
23703;DHT22;12030;50.376;8.762;2023-04-21T01:29:03;8.30;99.90
23703;DHT22;12030;50.376;8.762;2023-04-21T01:31:28;8.30;99.90
23703;DHT22;12030;50.376;8.762;2023-04-21T01:33:54;8.20;99.90
23703;DHT22;12030;50.376;8.762;2023-04-21T01:36:19;8.30;99.90
23703;DHT22;12030;50.376;8.762;2023-04-21T01:38:45;8.20;99.90
23703;DHT22;12030;50.376;8.762;2023-04-21T01:41:10;8.20;99.90
23703;DHT22;12030;50.376;8.762;2023-04-21T01:43:36;8.20;99.90
23703;DHT22;12030;50.376;8.762;2023-04-21T01:46:03;8.20;99.90
23703;DHT22;12030;50.376;8.762;2023-04-21T01:48:29;8.10;99.90
23703;DHT22;12030;50.376;8.762;2023-04-21T01:50:54;8.10;99.90
23703;DHT22;12030;50.376;8.762;2023-04-21T01:53:20;8.10;99.90
23703;DHT22;12030;50.376;8.762;2023-04-21T01:55:45;8.10;99.90
23703;DHT22;12030;50.376;8.762;2023-04-21T01:58:11;8.00;99.90
23703;DHT22;12030;50.376;8.762;2023-04-21T02:00:36;8.00;99.90
23703;DHT22;12030;50.376;8.762;2023-04-21T02:03:02;8.00;99.90
23703;DHT22;12030;50.376;8.762;2023-04-21T02:05:27;8.00;99.90
23703;DHT22;12030;50.376;8.762;2023-04-21T02:07:53;8.10;99.90
23703;DHT22;12030;50.376;8.762;2023-04-21T02:10:19;8.10;99.90
23703;DHT22;12030;50.376;8.762;2023-04-21T02:12:44;8.10;99.90
23703;DHT22;12030;50.376;8.762;2023-04-21T02:15:10;8.10;99.90
23703;DHT22;12030;50.376;8.762;2023-04-21T02:17:36;8.00;99.90
23703;DHT22;12030;50.376;8.762;2023-04-21T02:20:02;8.00;99.90
23703;DHT22;12030;50.376;8.762;2023-04-21T02:22:28;8.00;99.90
23703;DHT22;12030;50.376;8.762;2023-04-21T02:24:54;8.00;99.90
23703;DHT22;12030;50.376;8.762;2023-04-21T02:27:19;8.10;99.90
23703;DHT22;12030;50.376;8.762;2023-04-21T02:29:45;8.10;99.90
23703;DHT22;12030;50.376;8.762;2023-04-21T02:32:10;8.20;99.90
23703;DHT22;12030;50.376;8.762;2023-04-21T02:34:36;8.10;99.90
23703;DHT22;12030;50.376;8.762;2023-04-21T02:37:01;8.20;99.90
23703;DHT22;12030;50.376;8.762;2023-04-21T02:39:27;8.20;99.90
23703;DHT22;12030;50.376;8.762;2023-04-21T02:41:53;8.20;99.90
23703;DHT22;12030;50.376;8.762;2023-04-21T02:44:18;8.30;99.90
23703;DHT22;12030;50.376;8.762;2023-04-21T02:46:44;8.30;99.90
23703;DHT22;12030;50.376;8.762;2023-04-21T02:49:10;8.40;99.90
23703;DHT22;12030;50.376;8.762;2023-04-21T02:51:35;8.40;99.90
23703;DHT22;12030;50.376;8.762;2023-04-21T02:54:01;8.40;99.90
23703;DHT22;12030;50.376;8.762;2023-04-21T02:56:27;8.40;99.90
23703;DHT22;12030;50.376;8.762;2023-04-21T02:58:53;8.40;99.90
23703;DHT22;12030;50.376;8.762;2023-04-21T03:01:18;8.50;99.90
23703;DHT22;12030;50.376;8.762;2023-04-21T03:03:44;8.50;99.90
23703;DHT22;12030;50.376;8.762;2023-04-21T03:06:10;8.60;99.90
23703;DHT22;12030;50.376;8.762;2023-04-21T03:08:35;8.60;99.90
23703;DHT22;12030;50.376;8.762;2023-04-21T03:11:01;8.60;99.90
23703;DHT22;12030;50.376;8.762;2023-04-21T03:13:27;8.50;99.90
23703;DHT22;12030;50.376;8.762;2023-04-21T03:15:52;8.50;99.90
23703;DHT22;12030;50.376;8.762;2023-04-21T03:18:18;8.50;99.90
23703;DHT22;12030;50.376;8.762;2023-04-21T03:20:44;8.50;99.90
23703;DHT22;12030;50.376;8.762;2023-04-21T03:23:09;8.50;99.90
23703;DHT22;12030;50.376;8.762;2023-04-21T03:25:37;8.50;99.90
23703;DHT22;12030;50.376;8.762;2023-04-21T03:28:02;8.60;99.90
23703;DHT22;12030;50.376;8.762;2023-04-21T03:30:28;8.60;99.90
23703;DHT22;12030;50.376;8.762;2023-04-21T03:32:53;8.60;99.90
23703;DHT22;12030;50.376;8.762;2023-04-21T03:35:23;8.70;99.90
23703;DHT22;12030;50.376;8.762;2023-04-21T03:37:48;8.60;99.90
23703;DHT22;12030;50.376;8.762;2023-04-21T03:40:14;8.50;99.90
23703;DHT22;12030;50.376;8.762;2023-04-21T03:42:40;8.50;99.90
23703;DHT22;12030;50.376;8.762;2023-04-21T03:45:07;8.50;99.90
23703;DHT22;12030;50.376;8.762;2023-04-21T03:47:33;8.50;99.90
23703;DHT22;12030;50.376;8.762;2023-04-21T03:49:59;8.50;99.90
23703;DHT22;12030;50.376;8.762;2023-04-21T03:52:25;8.50;99.90
23703;DHT22;12030;50.376;8.762;2023-04-21T03:54:50;8.50;99.90
23703;DHT22;12030;50.376;8.762;2023-04-21T03:57:16;8.50;99.90
23703;DHT22;12030;50.376;8.762;2023-04-21T03:59:42;8.50;99.90
23703;DHT22;12030;50.376;8.762;2023-04-21T04:02:08;8.50;99.90
23703;DHT22;12030;50.376;8.762;2023-04-21T04:04:34;8.50;99.90
23703;DHT22;12030;50.376;8.762;2023-04-21T04:07:00;8.50;99.90
23703;DHT22;12030;50.376;8.762;2023-04-21T04:09:26;8.50;99.90
23703;DHT22;12030;50.376;8.762;2023-04-21T04:11:52;8.50;99.90
23703;DHT22;12030;50.376;8.762;2023-04-21T04:14:17;8.60;99.90
23703;DHT22;12030;50.376;8.762;2023-04-21T04:16:43;8.60;99.90
23703;DHT22;12030;50.376;8.762;2023-04-21T04:19:08;8.60;99.90
23703;DHT22;12030;50.376;8.762;2023-04-21T04:21:34;8.60;99.90
23703;DHT22;12030;50.376;8.762;2023-04-21T04:24:00;8.50;99.90
23703;DHT22;12030;50.376;8.762;2023-04-21T04:26:27;8.50;99.90
23703;DHT22;12030;50.376;8.762;2023-04-21T04:28:52;8.50;99.90
23703;DHT22;12030;50.376;8.762;2023-04-21T04:31:23;8.60;99.90
23703;DHT22;12030;50.376;8.762;2023-04-21T04:33:50;8.60;99.90
23703;DHT22;12030;50.376;8.762;2023-04-21T04:36:15;8.60;99.90
23703;DHT22;12030;50.376;8.762;2023-04-21T04:38:41;8.60;99.90
23703;DHT22;12030;50.376;8.762;2023-04-21T04:41:06;8.70;99.90
23703;DHT22;12030;50.376;8.762;2023-04-21T04:43:33;8.70;99.90
23703;DHT22;12030;50.376;8.762;2023-04-21T04:46:01;8.70;99.90
23703;DHT22;12030;50.376;8.762;2023-04-21T04:48:27;8.80;99.90
23703;DHT22;12030;50.376;8.762;2023-04-21T04:50:52;8.80;99.90
23703;DHT22;12030;50.376;8.762;2023-04-21T04:53:18;8.80;99.90
23703;DHT22;12030;50.376;8.762;2023-04-21T04:55:44;8.80;99.90
23703;DHT22;12030;50.376;8.762;2023-04-21T04:58:10;8.80;99.90
23703;DHT22;12030;50.376;8.762;2023-04-21T05:00:35;8.80;99.90
23703;DHT22;12030;50.376;8.762;2023-04-21T05:03:01;8.70;99.90
23703;DHT22;12030;50.376;8.762;2023-04-21T05:05:26;8.80;99.90
23703;DHT22;12030;50.376;8.762;2023-04-21T05:07:52;8.80;99.90
23703;DHT22;12030;50.376;8.762;2023-04-21T05:10:18;8.80;99.90
23703;DHT22;12030;50.376;8.762;2023-04-21T05:12:43;8.80;99.90
23703;DHT22;12030;50.376;8.762;2023-04-21T05:15:09;8.80;99.90
23703;DHT22;12030;50.376;8.762;2023-04-21T05:17:35;8.80;99.90
23703;DHT22;12030;50.376;8.762;2023-04-21T05:20:02;8.90;99.90
23703;DHT22;12030;50.376;8.762;2023-04-21T05:22:28;8.90;99.90
23703;DHT22;12030;50.376;8.762;2023-04-21T05:24:54;8.90;99.90
23703;DHT22;12030;50.376;8.762;2023-04-21T05:27:19;8.90;99.90
23703;DHT22;12030;50.376;8.762;2023-04-21T05:29:45;9.00;99.90
23703;DHT22;12030;50.376;8.762;2023-04-21T05:32:10;9.10;99.90
23703;DHT22;12030;50.376;8.762;2023-04-21T05:34:37;9.10;99.90
23703;DHT22;12030;50.376;8.762;2023-04-21T05:37:03;9.10;99.90
23703;DHT22;12030;50.376;8.762;2023-04-21T05:39:28;9.20;99.90
23703;DHT22;12030;50.376;8.762;2023-04-21T05:41:54;9.20;99.90
23703;DHT22;12030;50.376;8.762;2023-04-21T05:44:20;9.30;99.90
23703;DHT22;12030;50.376;8.762;2023-04-21T05:46:45;9.30;99.90
23703;DHT22;12030;50.376;8.762;2023-04-21T05:49:11;9.20;99.90
23703;DHT22;12030;50.376;8.762;2023-04-21T05:51:36;9.30;99.90
23703;DHT22;12030;50.376;8.762;2023-04-21T05:54:02;9.20;99.90
23703;DHT22;12030;50.376;8.762;2023-04-21T05:56:28;9.30;99.90
23703;DHT22;12030;50.376;8.762;2023-04-21T05:58:53;9.30;99.90
23703;DHT22;12030;50.376;8.762;2023-04-21T06:01:19;9.10;99.90
23703;DHT22;12030;50.376;8.762;2023-04-21T06:03:44;9.30;99.90
23703;DHT22;12030;50.376;8.762;2023-04-21T06:06:13;9.30;99.90
23703;DHT22;12030;50.376;8.762;2023-04-21T06:08:39;9.30;99.90
23703;DHT22;12030;50.376;8.762;2023-04-21T06:11:05;9.40;99.90
23703;DHT22;12030;50.376;8.762;2023-04-21T06:13:30;9.40;99.90
23703;DHT22;12030;50.376;8.762;2023-04-21T06:15:56;9.40;99.90
23703;DHT22;12030;50.376;8.762;2023-04-21T06:18:21;9.50;99.90
23703;DHT22;12030;50.376;8.762;2023-04-21T06:20:55;9.50;99.90
23703;DHT22;12030;50.376;8.762;2023-04-21T06:23:21;9.50;99.90
23703;DHT22;12030;50.376;8.762;2023-04-21T06:25:47;9.50;99.90
23703;DHT22;12030;50.376;8.762;2023-04-21T06:28:22;9.60;99.90
23703;DHT22;12030;50.376;8.762;2023-04-21T06:30:48;9.70;99.90
23703;DHT22;12030;50.376;8.762;2023-04-21T06:33:13;9.70;99.90
23703;DHT22;12030;50.376;8.762;2023-04-21T06:35:39;9.90;99.90
23703;DHT22;12030;50.376;8.762;2023-04-21T06:38:04;9.90;99.90
23703;DHT22;12030;50.376;8.762;2023-04-21T06:40:33;9.80;99.90
23703;DHT22;12030;50.376;8.762;2023-04-21T06:42:58;9.90;99.90
23703;DHT22;12030;50.376;8.762;2023-04-21T06:45:24;9.90;99.90
23703;DHT22;12030;50.376;8.762;2023-04-21T06:47:49;9.90;99.90
23703;DHT22;12030;50.376;8.762;2023-04-21T06:50:15;10.00;99.90
23703;DHT22;12030;50.376;8.762;2023-04-21T06:52:41;9.90;99.90
23703;DHT22;12030;50.376;8.762;2023-04-21T06:55:06;9.90;99.90
23703;DHT22;12030;50.376;8.762;2023-04-21T06:57:32;9.90;99.90
23703;DHT22;12030;50.376;8.762;2023-04-21T06:59:58;10.00;99.90
23703;DHT22;12030;50.376;8.762;2023-04-21T07:02:23;10.00;99.90
23703;DHT22;12030;50.376;8.762;2023-04-21T07:04:49;10.00;99.90
23703;DHT22;12030;50.376;8.762;2023-04-21T07:07:14;10.00;99.90
23703;DHT22;12030;50.376;8.762;2023-04-21T07:09:40;10.10;99.90
23703;DHT22;12030;50.376;8.762;2023-04-21T07:12:05;10.20;99.90
23703;DHT22;12030;50.376;8.762;2023-04-21T07:14:31;10.30;99.90
23703;DHT22;12030;50.376;8.762;2023-04-21T07:16:56;10.30;99.90
23703;DHT22;12030;50.376;8.762;2023-04-21T07:19:22;10.20;99.90
23703;DHT22;12030;50.376;8.762;2023-04-21T07:21:48;10.20;99.90
23703;DHT22;12030;50.376;8.762;2023-04-21T07:24:13;10.20;99.90
23703;DHT22;12030;50.376;8.762;2023-04-21T07:26:39;10.30;99.90
23703;DHT22;12030;50.376;8.762;2023-04-21T07:29:05;10.40;99.90
23703;DHT22;12030;50.376;8.762;2023-04-21T07:31:30;10.40;99.90
23703;DHT22;12030;50.376;8.762;2023-04-21T07:33:56;10.40;99.90
23703;DHT22;12030;50.376;8.762;2023-04-21T07:36:21;10.50;99.90
23703;DHT22;12030;50.376;8.762;2023-04-21T07:38:47;10.50;99.90
23703;DHT22;12030;50.376;8.762;2023-04-21T07:41:12;10.60;99.90
23703;DHT22;12030;50.376;8.762;2023-04-21T07:43:39;10.70;99.90
23703;DHT22;12030;50.376;8.762;2023-04-21T07:46:05;10.90;99.90
23703;DHT22;12030;50.376;8.762;2023-04-21T07:48:31;11.00;99.90
23703;DHT22;12030;50.376;8.762;2023-04-21T07:50:56;11.20;99.90
23703;DHT22;12030;50.376;8.762;2023-04-21T07:53:28;11.30;99.90
23703;DHT22;12030;50.376;8.762;2023-04-21T07:55:53;11.20;99.90
23703;DHT22;12030;50.376;8.762;2023-04-21T07:58:20;11.20;99.90
23703;DHT22;12030;50.376;8.762;2023-04-21T08:00:45;11.20;99.90
23703;DHT22;12030;50.376;8.762;2023-04-21T08:03:11;11.30;99.90
23703;DHT22;12030;50.376;8.762;2023-04-21T08:05:36;11.30;99.90
23703;DHT22;12030;50.376;8.762;2023-04-21T08:08:02;11.30;99.90
23703;DHT22;12030;50.376;8.762;2023-04-21T08:10:27;11.30;99.90
23703;DHT22;12030;50.376;8.762;2023-04-21T08:12:53;11.40;99.90
23703;DHT22;12030;50.376;8.762;2023-04-21T08:15:19;11.30;99.90
23703;DHT22;12030;50.376;8.762;2023-04-21T08:17:45;11.40;99.90
23703;DHT22;12030;50.376;8.762;2023-04-21T08:20:11;11.40;99.90
23703;DHT22;12030;50.376;8.762;2023-04-21T08:22:36;11.60;99.90
23703;DHT22;12030;50.376;8.762;2023-04-21T08:25:03;11.50;99.90
23703;DHT22;12030;50.376;8.762;2023-04-21T08:27:28;11.60;99.90
23703;DHT22;12030;50.376;8.762;2023-04-21T08:29:54;11.60;99.90
23703;DHT22;12030;50.376;8.762;2023-04-21T08:32:20;11.60;99.90
23703;DHT22;12030;50.376;8.762;2023-04-21T08:34:52;11.60;99.90
23703;DHT22;12030;50.376;8.762;2023-04-21T08:37:19;11.60;99.90
23703;DHT22;12030;50.376;8.762;2023-04-21T08:39:45;11.80;99.90
23703;DHT22;12030;50.376;8.762;2023-04-21T08:42:15;12.00;99.90
23703;DHT22;12030;50.376;8.762;2023-04-21T08:44:41;12.30;99.90
23703;DHT22;12030;50.376;8.762;2023-04-21T08:47:09;12.40;99.90
23703;DHT22;12030;50.376;8.762;2023-04-21T08:49:37;12.70;99.90
23703;DHT22;12030;50.376;8.762;2023-04-21T08:52:03;12.80;99.90
23703;DHT22;12030;50.376;8.762;2023-04-21T08:54:28;13.00;99.90
23703;DHT22;12030;50.376;8.762;2023-04-21T08:56:55;13.10;99.90
23703;DHT22;12030;50.376;8.762;2023-04-21T08:59:21;13.20;99.90
23703;DHT22;12030;50.376;8.762;2023-04-21T09:04:30;13.20;99.90
23703;DHT22;12030;50.376;8.762;2023-04-21T09:06:56;13.30;99.90
23703;DHT22;12030;50.376;8.762;2023-04-21T09:09:21;13.40;99.90
23703;DHT22;12030;50.376;8.762;2023-04-21T09:11:57;13.50;99.90
23703;DHT22;12030;50.376;8.762;2023-04-21T09:14:32;13.50;99.90
23703;DHT22;12030;50.376;8.762;2023-04-21T09:17:02;13.60;99.90
23703;DHT22;12030;50.376;8.762;2023-04-21T09:19:29;13.80;99.90
23703;DHT22;12030;50.376;8.762;2023-04-21T09:21:54;14.00;99.90
23703;DHT22;12030;50.376;8.762;2023-04-21T09:24:20;14.20;99.90
23703;DHT22;12030;50.376;8.762;2023-04-21T09:26:50;14.20;99.90
23703;DHT22;12030;50.376;8.762;2023-04-21T09:29:25;14.30;99.90
23703;DHT22;12030;50.376;8.762;2023-04-21T09:31:51;14.20;99.90
23703;DHT22;12030;50.376;8.762;2023-04-21T09:34:25;14.20;99.90
23703;DHT22;12030;50.376;8.762;2023-04-21T09:37:03;14.30;99.90
23703;DHT22;12030;50.376;8.762;2023-04-21T09:39:30;14.30;99.90
23703;DHT22;12030;50.376;8.762;2023-04-21T09:41:56;14.30;99.90
23703;DHT22;12030;50.376;8.762;2023-04-21T09:44:25;14.30;99.90
23703;DHT22;12030;50.376;8.762;2023-04-21T09:47:00;14.30;99.90
23703;DHT22;12030;50.376;8.762;2023-04-21T09:49:29;14.40;99.90
23703;DHT22;12030;50.376;8.762;2023-04-21T09:51:57;14.50;99.90
23703;DHT22;12030;50.376;8.762;2023-04-21T09:54:29;14.60;99.90
23703;DHT22;12030;50.376;8.762;2023-04-21T09:57:00;14.60;99.90
23703;DHT22;12030;50.376;8.762;2023-04-21T09:59:34;14.60;99.90
23703;DHT22;12030;50.376;8.762;2023-04-21T10:02:00;14.80;99.90
23703;DHT22;12030;50.376;8.762;2023-04-21T10:04:27;14.70;99.90
23703;DHT22;12030;50.376;8.762;2023-04-21T10:06:54;14.70;99.90
23703;DHT22;12030;50.376;8.762;2023-04-21T10:09:22;14.90;99.90
23703;DHT22;12030;50.376;8.762;2023-04-21T10:11:50;14.90;99.90
23703;DHT22;12030;50.376;8.762;2023-04-21T10:14:17;15.00;99.90
23703;DHT22;12030;50.376;8.762;2023-04-21T10:16:42;15.00;99.90
23703;DHT22;12030;50.376;8.762;2023-04-21T10:19:28;15.00;99.90
23703;DHT22;12030;50.376;8.762;2023-04-21T10:21:59;15.10;99.90
23703;DHT22;12030;50.376;8.762;2023-04-21T10:24:29;14.90;99.90
23703;DHT22;12030;50.376;8.762;2023-04-21T10:26:56;14.90;99.90
23703;DHT22;12030;50.376;8.762;2023-04-21T10:29:31;15.00;99.90
23703;DHT22;12030;50.376;8.762;2023-04-21T10:31:57;15.00;99.90
23703;DHT22;12030;50.376;8.762;2023-04-21T10:34:43;15.00;99.90
23703;DHT22;12030;50.376;8.762;2023-04-21T10:37:11;14.90;99.90
23703;DHT22;12030;50.376;8.762;2023-04-21T10:39:50;15.10;99.90
23703;DHT22;12030;50.376;8.762;2023-04-21T10:44:42;15.40;99.90
23703;DHT22;12030;50.376;8.762;2023-04-21T10:47:08;15.60;99.90
23703;DHT22;12030;50.376;8.762;2023-04-21T10:49:38;15.80;99.90
23703;DHT22;12030;50.376;8.762;2023-04-21T10:52:08;16.10;99.90
23703;DHT22;12030;50.376;8.762;2023-04-21T10:54:43;16.10;99.90
23703;DHT22;12030;50.376;8.762;2023-04-21T10:57:30;16.00;99.90
23703;DHT22;12030;50.376;8.762;2023-04-21T10:59:56;16.10;99.90
23703;DHT22;12030;50.376;8.762;2023-04-21T11:02:22;16.20;99.90
23703;DHT22;12030;50.376;8.762;2023-04-21T11:04:51;16.30;99.90
23703;DHT22;12030;50.376;8.762;2023-04-21T11:07:21;16.30;99.90
23703;DHT22;12030;50.376;8.762;2023-04-21T11:09:55;16.40;99.90
23703;DHT22;12030;50.376;8.762;2023-04-21T11:12:21;16.50;99.90
23703;DHT22;12030;50.376;8.762;2023-04-21T11:14:47;16.50;99.90
23703;DHT22;12030;50.376;8.762;2023-04-21T11:17:14;16.60;99.90
23703;DHT22;12030;50.376;8.762;2023-04-21T11:19:45;16.70;99.90
23703;DHT22;12030;50.376;8.762;2023-04-21T11:22:11;17.00;99.90
23703;DHT22;12030;50.376;8.762;2023-04-21T11:24:37;17.00;99.90
23703;DHT22;12030;50.376;8.762;2023-04-21T11:27:02;17.20;99.90
23703;DHT22;12030;50.376;8.762;2023-04-21T11:29:32;17.40;99.90
23703;DHT22;12030;50.376;8.762;2023-04-21T11:31:58;17.60;99.90
23703;DHT22;12030;50.376;8.762;2023-04-21T11:34:25;17.50;99.90
23703;DHT22;12030;50.376;8.762;2023-04-21T11:36:52;17.60;99.90
23703;DHT22;12030;50.376;8.762;2023-04-21T11:39:18;17.60;99.90
23703;DHT22;12030;50.376;8.762;2023-04-21T11:41:48;17.50;99.90
23703;DHT22;12030;50.376;8.762;2023-04-21T11:46:55;17.10;99.90
23703;DHT22;12030;50.376;8.762;2023-04-21T11:49:24;17.10;99.90
23703;DHT22;12030;50.376;8.762;2023-04-21T11:51:49;16.90;99.90
23703;DHT22;12030;50.376;8.762;2023-04-21T11:54:17;16.80;99.90
23703;DHT22;12030;50.376;8.762;2023-04-21T11:56:45;16.70;99.90
23703;DHT22;12030;50.376;8.762;2023-04-21T11:59:16;16.80;99.90
23703;DHT22;12030;50.376;8.762;2023-04-21T12:01:48;16.90;99.90
23703;DHT22;12030;50.376;8.762;2023-04-21T12:06:44;17.00;99.90
23703;DHT22;12030;50.376;8.762;2023-04-21T12:09:18;17.00;99.90
23703;DHT22;12030;50.376;8.762;2023-04-21T12:11:50;17.10;99.90
23703;DHT22;12030;50.376;8.762;2023-04-21T12:14:20;17.20;99.90
23703;DHT22;12030;50.376;8.762;2023-04-21T12:16:51;16.90;99.90
23703;DHT22;12030;50.376;8.762;2023-04-21T12:19:44;17.00;99.90
23703;DHT22;12030;50.376;8.762;2023-04-21T12:22:14;17.00;99.90
23703;DHT22;12030;50.376;8.762;2023-04-21T12:24:42;17.10;99.90
23703;DHT22;12030;50.376;8.762;2023-04-21T12:27:08;17.20;99.90
23703;DHT22;12030;50.376;8.762;2023-04-21T12:29:33;17.40;99.90
23703;DHT22;12030;50.376;8.762;2023-04-21T12:32:03;17.40;99.90
23703;DHT22;12030;50.376;8.762;2023-04-21T12:34:29;17.60;99.90
23703;DHT22;12030;50.376;8.762;2023-04-21T12:36:55;17.60;99.90
23703;DHT22;12030;50.376;8.762;2023-04-21T12:39:20;17.60;99.90
23703;DHT22;12030;50.376;8.762;2023-04-21T12:41:46;17.80;99.90
23703;DHT22;12030;50.376;8.762;2023-04-21T12:44:12;18.00;99.90
23703;DHT22;12030;50.376;8.762;2023-04-21T12:46:38;18.60;99.90
23703;DHT22;12030;50.376;8.762;2023-04-21T12:49:05;18.80;99.90
23703;DHT22;12030;50.376;8.762;2023-04-21T12:51:32;19.10;99.90
23703;DHT22;12030;50.376;8.762;2023-04-21T12:53:57;19.10;99.90
23703;DHT22;12030;50.376;8.762;2023-04-21T12:56:23;19.00;99.90
23703;DHT22;12030;50.376;8.762;2023-04-21T12:58:48;18.90;99.90
23703;DHT22;12030;50.376;8.762;2023-04-21T13:01:14;18.60;99.90
23703;DHT22;12030;50.376;8.762;2023-04-21T13:03:40;18.40;99.90
23703;DHT22;12030;50.376;8.762;2023-04-21T13:06:06;18.30;99.90
23703;DHT22;12030;50.376;8.762;2023-04-21T13:08:33;18.00;99.90
23703;DHT22;12030;50.376;8.762;2023-04-21T13:10:58;18.10;99.90
23703;DHT22;12030;50.376;8.762;2023-04-21T13:13:24;18.10;99.90
23703;DHT22;12030;50.376;8.762;2023-04-21T13:15:50;18.40;99.90
23703;DHT22;12030;50.376;8.762;2023-04-21T13:18:16;18.40;99.90
23703;DHT22;12030;50.376;8.762;2023-04-21T13:20:41;18.40;99.90
23703;DHT22;12030;50.376;8.762;2023-04-21T13:23:07;18.30;99.90
23703;DHT22;12030;50.376;8.762;2023-04-21T13:25:33;18.20;99.90
23703;DHT22;12030;50.376;8.762;2023-04-21T13:27:59;18.50;99.90
23703;DHT22;12030;50.376;8.762;2023-04-21T13:30:25;18.60;99.90
23703;DHT22;12030;50.376;8.762;2023-04-21T13:32:50;18.70;99.90
23703;DHT22;12030;50.376;8.762;2023-04-21T13:35:16;18.70;99.90
23703;DHT22;12030;50.376;8.762;2023-04-21T13:37:42;18.70;99.90
23703;DHT22;12030;50.376;8.762;2023-04-21T13:40:09;18.70;99.90
23703;DHT22;12030;50.376;8.762;2023-04-21T13:42:38;18.90;99.90
23703;DHT22;12030;50.376;8.762;2023-04-21T13:45:04;19.30;99.90
23703;DHT22;12030;50.376;8.762;2023-04-21T13:47:31;19.60;99.90
23703;DHT22;12030;50.376;8.762;2023-04-21T13:49:57;19.80;99.90
23703;DHT22;12030;50.376;8.762;2023-04-21T13:52:23;20.00;99.90
23703;DHT22;12030;50.376;8.762;2023-04-21T13:54:50;20.20;99.90
23703;DHT22;12030;50.376;8.762;2023-04-21T13:57:17;20.40;99.90
23703;DHT22;12030;50.376;8.762;2023-04-21T13:59:42;20.50;99.90
23703;DHT22;12030;50.376;8.762;2023-04-21T14:02:08;20.70;99.90
23703;DHT22;12030;50.376;8.762;2023-04-21T14:04:34;20.80;99.90
23703;DHT22;12030;50.376;8.762;2023-04-21T14:07:01;20.80;99.90
23703;DHT22;12030;50.376;8.762;2023-04-21T14:09:27;20.70;99.90
23703;DHT22;12030;50.376;8.762;2023-04-21T14:11:53;20.90;99.90
23703;DHT22;12030;50.376;8.762;2023-04-21T14:14:18;21.20;99.90
23703;DHT22;12030;50.376;8.762;2023-04-21T14:16:45;21.40;99.90
23703;DHT22;12030;50.376;8.762;2023-04-21T14:19:13;21.50;99.90
23703;DHT22;12030;50.376;8.762;2023-04-21T14:21:39;21.60;99.90
23703;DHT22;12030;50.376;8.762;2023-04-21T14:24:05;21.70;99.90
23703;DHT22;12030;50.376;8.762;2023-04-21T14:26:31;21.80;99.90
23703;DHT22;12030;50.376;8.762;2023-04-21T14:28:56;22.00;98.20
23703;DHT22;12030;50.376;8.762;2023-04-21T14:31:23;22.00;98.90
23703;DHT22;12030;50.376;8.762;2023-04-21T14:33:49;21.90;98.50
23703;DHT22;12030;50.376;8.762;2023-04-21T14:36:14;21.90;99.50
23703;DHT22;12030;50.376;8.762;2023-04-21T14:38:40;22.00;98.20
23703;DHT22;12030;50.376;8.762;2023-04-21T14:41:07;22.20;97.50
23703;DHT22;12030;50.376;8.762;2023-04-21T14:43:32;22.10;97.10
23703;DHT22;12030;50.376;8.762;2023-04-21T14:45:58;22.40;98.00
23703;DHT22;12030;50.376;8.762;2023-04-21T14:48:23;22.40;96.60
23703;DHT22;12030;50.376;8.762;2023-04-21T14:50:49;22.30;97.80
23703;DHT22;12030;50.376;8.762;2023-04-21T14:53:15;22.50;97.80
23703;DHT22;12030;50.376;8.762;2023-04-21T14:55:41;22.60;98.00
23703;DHT22;12030;50.376;8.762;2023-04-21T14:58:06;22.80;98.70
23703;DHT22;12030;50.376;8.762;2023-04-21T15:00:32;22.80;96.70
23703;DHT22;12030;50.376;8.762;2023-04-21T15:02:59;22.90;97.20
23703;DHT22;12030;50.376;8.762;2023-04-21T15:05:25;22.90;98.10
23703;DHT22;12030;50.376;8.762;2023-04-21T15:07:50;23.00;96.60
23703;DHT22;12030;50.376;8.762;2023-04-21T15:10:16;23.00;97.10
23703;DHT22;12030;50.376;8.762;2023-04-21T15:12:42;23.10;96.40
23703;DHT22;12030;50.376;8.762;2023-04-21T15:15:08;23.00;96.10
23703;DHT22;12030;50.376;8.762;2023-04-21T15:17:34;23.00;95.50
23703;DHT22;12030;50.376;8.762;2023-04-21T15:20:00;23.10;96.00
23703;DHT22;12030;50.376;8.762;2023-04-21T15:22:25;23.30;96.30
23703;DHT22;12030;50.376;8.762;2023-04-21T15:24:51;23.30;96.70
23703;DHT22;12030;50.376;8.762;2023-04-21T15:27:16;23.40;95.70
23703;DHT22;12030;50.376;8.762;2023-04-21T15:29:42;23.40;96.50
23703;DHT22;12030;50.376;8.762;2023-04-21T15:32:08;23.40;95.40
23703;DHT22;12030;50.376;8.762;2023-04-21T15:34:34;23.60;95.50
23703;DHT22;12030;50.376;8.762;2023-04-21T15:36:59;23.50;95.50
23703;DHT22;12030;50.376;8.762;2023-04-21T15:39:25;23.60;96.20
23703;DHT22;12030;50.376;8.762;2023-04-21T15:41:51;23.70;96.40
23703;DHT22;12030;50.376;8.762;2023-04-21T15:44:17;23.60;96.70
23703;DHT22;12030;50.376;8.762;2023-04-21T15:46:43;23.80;95.60